sensor_id;sensor_type;location;lat;lon;timestamp;P1;durP1;ratioP1;P2;durP2;ratioP2
47860;SDS011;33620;52.340;5.984;2022-12-24T00:01:51;27.63;;;5.20;;
47860;SDS011;33620;52.340;5.984;2022-12-24T00:04:17;30.33;;;5.63;;
47860;SDS011;33620;52.340;5.984;2022-12-24T00:06:42;35.53;;;7.03;;
47860;SDS011;33620;52.340;5.984;2022-12-24T00:09:08;30.98;;;5.53;;
47860;SDS011;33620;52.340;5.984;2022-12-24T00:11:34;34.03;;;6.30;;
47860;SDS011;33620;52.340;5.984;2022-12-24T00:13:59;34.13;;;5.80;;
47860;SDS011;33620;52.340;5.984;2022-12-24T00:16:25;38.70;;;6.45;;
47860;SDS011;33620;52.340;5.984;2022-12-24T00:18:50;26.15;;;5.57;;
47860;SDS011;33620;52.340;5.984;2022-12-24T00:21:16;30.25;;;5.63;;
47860;SDS011;33620;52.340;5.984;2022-12-24T00:23:41;31.23;;;5.53;;
47860;SDS011;33620;52.340;5.984;2022-12-24T00:26:07;36.50;;;5.80;;
47860;SDS011;33620;52.340;5.984;2022-12-24T00:28:32;23.70;;;5.55;;
47860;SDS011;33620;52.340;5.984;2022-12-24T00:30:58;33.85;;;5.93;;
47860;SDS011;33620;52.340;5.984;2022-12-24T00:33:23;31.10;;;6.25;;
47860;SDS011;33620;52.340;5.984;2022-12-24T00:35:49;33.30;;;6.75;;
47860;SDS011;33620;52.340;5.984;2022-12-24T00:38:15;32.08;;;6.20;;
47860;SDS011;33620;52.340;5.984;2022-12-24T00:40:41;28.90;;;5.72;;
47860;SDS011;33620;52.340;5.984;2022-12-24T00:43:06;29.23;;;5.32;;
47860;SDS011;33620;52.340;5.984;2022-12-24T00:45:32;31.95;;;5.53;;
47860;SDS011;33620;52.340;5.984;2022-12-24T00:47:57;38.70;;;5.93;;
47860;SDS011;33620;52.340;5.984;2022-12-24T00:50:22;33.17;;;6.10;;
47860;SDS011;33620;52.340;5.984;2022-12-24T00:52:48;33.20;;;6.70;;
47860;SDS011;33620;52.340;5.984;2022-12-24T00:55:13;32.65;;;5.95;;
47860;SDS011;33620;52.340;5.984;2022-12-24T00:57:39;31.83;;;7.25;;
47860;SDS011;33620;52.340;5.984;2022-12-24T01:00:04;32.00;;;6.65;;
47860;SDS011;33620;52.340;5.984;2022-12-24T01:02:30;35.10;;;6.30;;
47860;SDS011;33620;52.340;5.984;2022-12-24T01:04:56;37.80;;;6.07;;
47860;SDS011;33620;52.340;5.984;2022-12-24T01:07:36;32.90;;;5.90;;
47860;SDS011;33620;52.340;5.984;2022-12-24T01:10:04;29.08;;;6.70;;
47860;SDS011;33620;52.340;5.984;2022-12-24T01:12:31;36.00;;;6.40;;
47860;SDS011;33620;52.340;5.984;2022-12-24T01:14:57;33.92;;;6.60;;
47860;SDS011;33620;52.340;5.984;2022-12-24T01:17:22;30.88;;;5.90;;
47860;SDS011;33620;52.340;5.984;2022-12-24T01:19:48;32.25;;;5.88;;
47860;SDS011;33620;52.340;5.984;2022-12-24T01:22:13;38.60;;;5.68;;
47860;SDS011;33620;52.340;5.984;2022-12-24T01:24:39;33.50;;;6.35;;
47860;SDS011;33620;52.340;5.984;2022-12-24T01:27:05;38.42;;;7.80;;
47860;SDS011;33620;52.340;5.984;2022-12-24T01:29:31;37.28;;;6.07;;
47860;SDS011;33620;52.340;5.984;2022-12-24T01:31:56;36.38;;;5.63;;
47860;SDS011;33620;52.340;5.984;2022-12-24T01:34:22;30.30;;;6.43;;
47860;SDS011;33620;52.340;5.984;2022-12-24T01:36:47;32.95;;;5.88;;
47860;SDS011;33620;52.340;5.984;2022-12-24T01:39:13;37.28;;;6.82;;
47860;SDS011;33620;52.340;5.984;2022-12-24T01:41:38;32.78;;;6.38;;
47860;SDS011;33620;52.340;5.984;2022-12-24T01:44:24;34.28;;;6.93;;
47860;SDS011;33620;52.340;5.984;2022-12-24T01:49:50;32.25;;;6.53;;
47860;SDS011;33620;52.340;5.984;2022-12-24T01:52:21;31.70;;;6.63;;
47860;SDS011;33620;52.340;5.984;2022-12-24T01:54:49;37.67;;;6.93;;
47860;SDS011;33620;52.340;5.984;2022-12-24T01:57:20;29.50;;;6.95;;
47860;SDS011;33620;52.340;5.984;2022-12-24T01:59:49;37.28;;;7.07;;
47860;SDS011;33620;52.340;5.984;2022-12-24T02:02:17;37.97;;;7.53;;
47860;SDS011;33620;52.340;5.984;2022-12-24T02:07:11;39.95;;;6.97;;
47860;SDS011;33620;52.340;5.984;2022-12-24T02:09:37;38.75;;;7.75;;
47860;SDS011;33620;52.340;5.984;2022-12-24T02:12:03;38.28;;;7.70;;
47860;SDS011;33620;52.340;5.984;2022-12-24T02:14:30;37.03;;;7.10;;
47860;SDS011;33620;52.340;5.984;2022-12-24T02:28:53;37.75;;;7.88;;
47860;SDS011;33620;52.340;5.984;2022-12-24T02:31:22;41.50;;;7.72;;
47860;SDS011;33620;52.340;5.984;2022-12-24T02:36:52;34.88;;;7.45;;
47860;SDS011;33620;52.340;5.984;2022-12-24T02:39:26;33.58;;;7.25;;
47860;SDS011;33620;52.340;5.984;2022-12-24T02:42:16;36.08;;;7.18;;
47860;SDS011;33620;52.340;5.984;2022-12-24T02:44:55;39.58;;;7.05;;
47860;SDS011;33620;52.340;5.984;2022-12-24T02:47:25;42.55;;;7.72;;
47860;SDS011;33620;52.340;5.984;2022-12-24T02:49:52;46.42;;;8.90;;
47860;SDS011;33620;52.340;5.984;2022-12-24T02:52:35;43.30;;;7.95;;
47860;SDS011;33620;52.340;5.984;2022-12-24T02:58:34;43.13;;;7.20;;
47860;SDS011;33620;52.340;5.984;2022-12-24T03:04:29;38.15;;;8.85;;
47860;SDS011;33620;52.340;5.984;2022-12-24T03:07:06;35.50;;;6.97;;
47860;SDS011;33620;52.340;5.984;2022-12-24T03:09:37;32.15;;;6.35;;
47860;SDS011;33620;52.340;5.984;2022-12-24T03:12:17;47.13;;;9.90;;
47860;SDS011;33620;52.340;5.984;2022-12-24T03:14:46;46.75;;;7.57;;
47860;SDS011;33620;52.340;5.984;2022-12-24T03:17:13;48.15;;;9.70;;
47860;SDS011;33620;52.340;5.984;2022-12-24T03:19:39;38.05;;;7.53;;
47860;SDS011;33620;52.340;5.984;2022-12-24T03:22:06;33.60;;;6.07;;
47860;SDS011;33620;52.340;5.984;2022-12-24T03:24:34;36.08;;;6.95;;
47860;SDS011;33620;52.340;5.984;2022-12-24T03:27:00;38.42;;;7.93;;
47860;SDS011;33620;52.340;5.984;2022-12-24T03:29:26;43.17;;;8.32;;
47860;SDS011;33620;52.340;5.984;2022-12-24T03:31:52;38.33;;;8.20;;
47860;SDS011;33620;52.340;5.984;2022-12-24T03:34:24;40.38;;;7.93;;
47860;SDS011;33620;52.340;5.984;2022-12-24T03:36:50;49.75;;;9.20;;
47860;SDS011;33620;52.340;5.984;2022-12-24T03:39:15;32.72;;;7.53;;
47860;SDS011;33620;52.340;5.984;2022-12-24T03:41:41;37.72;;;8.38;;
47860;SDS011;33620;52.340;5.984;2022-12-24T03:44:06;40.05;;;7.80;;
47860;SDS011;33620;52.340;5.984;2022-12-24T03:46:32;41.85;;;7.88;;
47860;SDS011;33620;52.340;5.984;2022-12-24T03:48:57;40.28;;;7.13;;
47860;SDS011;33620;52.340;5.984;2022-12-24T03:51:23;31.45;;;7.07;;
47860;SDS011;33620;52.340;5.984;2022-12-24T03:53:54;37.00;;;8.02;;
47860;SDS011;33620;52.340;5.984;2022-12-24T03:56:21;43.58;;;9.85;;
47860;SDS011;33620;52.340;5.984;2022-12-24T03:58:47;43.05;;;7.65;;
47860;SDS011;33620;52.340;5.984;2022-12-24T04:01:13;38.65;;;7.50;;
47860;SDS011;33620;52.340;5.984;2022-12-24T04:03:39;45.92;;;8.32;;
47860;SDS011;33620;52.340;5.984;2022-12-24T04:06:14;46.33;;;7.85;;
47860;SDS011;33620;52.340;5.984;2022-12-24T04:08:42;35.58;;;6.45;;
47860;SDS011;33620;52.340;5.984;2022-12-24T04:11:09;48.20;;;8.43;;
47860;SDS011;33620;52.340;5.984;2022-12-24T04:13:35;42.05;;;9.35;;
47860;SDS011;33620;52.340;5.984;2022-12-24T04:16:02;42.78;;;9.10;;
47860;SDS011;33620;52.340;5.984;2022-12-24T04:18:32;54.85;;;8.93;;
47860;SDS011;33620;52.340;5.984;2022-12-24T04:20:58;45.55;;;8.13;;
47860;SDS011;33620;52.340;5.984;2022-12-24T04:23:23;40.25;;;8.57;;
47860;SDS011;33620;52.340;5.984;2022-12-24T04:25:49;45.05;;;8.10;;
47860;SDS011;33620;52.340;5.984;2022-12-24T04:28:15;44.03;;;7.80;;
47860;SDS011;33620;52.340;5.984;2022-12-24T04:30:41;44.97;;;8.18;;
47860;SDS011;33620;52.340;5.984;2022-12-24T04:33:07;39.30;;;7.70;;
47860;SDS011;33620;52.340;5.984;2022-12-24T04:35:32;35.33;;;7.35;;
47860;SDS011;33620;52.340;5.984;2022-12-24T04:37:58;41.95;;;7.63;;
47860;SDS011;33620;52.340;5.984;2022-12-24T04:40:24;41.97;;;8.10;;
47860;SDS011;33620;52.340;5.984;2022-12-24T04:42:50;41.05;;;7.70;;
47860;SDS011;33620;52.340;5.984;2022-12-24T04:45:16;39.85;;;7.70;;
47860;SDS011;33620;52.340;5.984;2022-12-24T04:47:42;37.92;;;6.82;;
47860;SDS011;33620;52.340;5.984;2022-12-24T04:50:07;40.28;;;7.82;;
47860;SDS011;33620;52.340;5.984;2022-12-24T04:52:33;41.28;;;8.18;;
47860;SDS011;33620;52.340;5.984;2022-12-24T04:54:58;38.28;;;7.55;;
47860;SDS011;33620;52.340;5.984;2022-12-24T04:57:24;45.03;;;8.50;;
47860;SDS011;33620;52.340;5.984;2022-12-24T04:59:49;36.88;;;7.43;;
47860;SDS011;33620;52.340;5.984;2022-12-24T05:02:15;43.78;;;7.75;;
47860;SDS011;33620;52.340;5.984;2022-12-24T05:04:40;40.35;;;7.45;;
47860;SDS011;33620;52.340;5.984;2022-12-24T05:07:05;39.55;;;6.72;;
47860;SDS011;33620;52.340;5.984;2022-12-24T05:09:31;40.00;;;7.60;;
47860;SDS011;33620;52.340;5.984;2022-12-24T05:11:56;45.92;;;8.93;;
47860;SDS011;33620;52.340;5.984;2022-12-24T05:14:22;39.60;;;7.93;;
47860;SDS011;33620;52.340;5.984;2022-12-24T05:16:47;48.10;;;8.15;;
47860;SDS011;33620;52.340;5.984;2022-12-24T05:19:12;45.67;;;10.48;;
47860;SDS011;33620;52.340;5.984;2022-12-24T05:21:38;41.35;;;8.40;;
47860;SDS011;33620;52.340;5.984;2022-12-24T05:24:03;41.35;;;7.65;;
47860;SDS011;33620;52.340;5.984;2022-12-24T05:26:48;40.08;;;8.63;;
47860;SDS011;33620;52.340;5.984;2022-12-24T05:29:16;51.53;;;9.27;;
47860;SDS011;33620;52.340;5.984;2022-12-24T05:31:42;39.55;;;8.35;;
47860;SDS011;33620;52.340;5.984;2022-12-24T05:34:09;57.90;;;10.52;;
47860;SDS011;33620;52.340;5.984;2022-12-24T05:36:35;43.17;;;8.90;;
47860;SDS011;33620;52.340;5.984;2022-12-24T05:39:00;40.50;;;8.32;;
47860;SDS011;33620;52.340;5.984;2022-12-24T05:41:26;37.40;;;7.10;;
47860;SDS011;33620;52.340;5.984;2022-12-24T05:43:52;44.33;;;9.73;;
47860;SDS011;33620;52.340;5.984;2022-12-24T05:46:18;42.20;;;9.00;;
47860;SDS011;33620;52.340;5.984;2022-12-24T05:48:45;46.83;;;7.97;;
47860;SDS011;33620;52.340;5.984;2022-12-24T05:51:13;46.50;;;9.70;;
47860;SDS011;33620;52.340;5.984;2022-12-24T05:53:40;42.05;;;9.30;;
47860;SDS011;33620;52.340;5.984;2022-12-24T05:56:09;48.88;;;8.73;;
47860;SDS011;33620;52.340;5.984;2022-12-24T05:58:36;44.05;;;7.50;;
47860;SDS011;33620;52.340;5.984;2022-12-24T06:01:03;37.28;;;8.35;;
47860;SDS011;33620;52.340;5.984;2022-12-24T06:03:29;41.10;;;9.02;;
47860;SDS011;33620;52.340;5.984;2022-12-24T06:08:31;48.00;;;8.98;;
47860;SDS011;33620;52.340;5.984;2022-12-24T06:10:59;41.80;;;8.02;;
47860;SDS011;33620;52.340;5.984;2022-12-24T06:13:26;45.38;;;8.70;;
47860;SDS011;33620;52.340;5.984;2022-12-24T06:15:59;37.13;;;7.97;;
47860;SDS011;33620;52.340;5.984;2022-12-24T06:18:27;41.75;;;7.05;;
47860;SDS011;33620;52.340;5.984;2022-12-24T06:20:53;41.08;;;8.23;;
47860;SDS011;33620;52.340;5.984;2022-12-24T06:23:20;45.63;;;8.52;;
47860;SDS011;33620;52.340;5.984;2022-12-24T06:25:47;48.33;;;9.07;;
47860;SDS011;33620;52.340;5.984;2022-12-24T06:28:12;38.65;;;9.20;;
47860;SDS011;33620;52.340;5.984;2022-12-24T06:30:38;46.42;;;8.60;;
47860;SDS011;33620;52.340;5.984;2022-12-24T06:33:04;43.40;;;9.38;;
47860;SDS011;33620;52.340;5.984;2022-12-24T06:35:30;43.88;;;8.88;;
47860;SDS011;33620;52.340;5.984;2022-12-24T06:37:56;45.42;;;10.38;;
47860;SDS011;33620;52.340;5.984;2022-12-24T06:40:21;44.10;;;10.38;;
47860;SDS011;33620;52.340;5.984;2022-12-24T06:42:46;37.53;;;8.43;;
47860;SDS011;33620;52.340;5.984;2022-12-24T06:45:12;39.42;;;9.55;;
47860;SDS011;33620;52.340;5.984;2022-12-24T06:47:37;39.30;;;8.23;;
47860;SDS011;33620;52.340;5.984;2022-12-24T06:50:03;40.90;;;9.90;;
47860;SDS011;33620;52.340;5.984;2022-12-24T06:52:28;39.28;;;9.43;;
47860;SDS011;33620;52.340;5.984;2022-12-24T06:54:54;50.28;;;11.60;;
47860;SDS011;33620;52.340;5.984;2022-12-24T06:57:19;41.88;;;9.35;;
47860;SDS011;33620;52.340;5.984;2022-12-24T06:59:44;37.15;;;9.07;;
47860;SDS011;33620;52.340;5.984;2022-12-24T07:02:10;43.10;;;9.15;;
47860;SDS011;33620;52.340;5.984;2022-12-24T07:04:35;36.90;;;9.32;;
47860;SDS011;33620;52.340;5.984;2022-12-24T07:07:00;53.42;;;10.13;;
47860;SDS011;33620;52.340;5.984;2022-12-24T07:09:26;44.40;;;10.25;;
47860;SDS011;33620;52.340;5.984;2022-12-24T07:11:51;39.75;;;9.60;;
47860;SDS011;33620;52.340;5.984;2022-12-24T07:14:16;41.85;;;9.05;;
47860;SDS011;33620;52.340;5.984;2022-12-24T07:16:42;43.78;;;10.35;;
47860;SDS011;33620;52.340;5.984;2022-12-24T07:19:07;41.20;;;9.55;;
47860;SDS011;33620;52.340;5.984;2022-12-24T07:21:32;49.28;;;9.90;;
47860;SDS011;33620;52.340;5.984;2022-12-24T07:23:58;38.97;;;8.70;;
47860;SDS011;33620;52.340;5.984;2022-12-24T07:26:23;48.45;;;11.18;;
47860;SDS011;33620;52.340;5.984;2022-12-24T07:28:49;46.08;;;10.13;;
47860;SDS011;33620;52.340;5.984;2022-12-24T07:31:14;40.03;;;9.30;;
47860;SDS011;33620;52.340;5.984;2022-12-24T07:33:40;41.95;;;8.23;;
47860;SDS011;33620;52.340;5.984;2022-12-24T07:36:06;46.97;;;8.90;;
47860;SDS011;33620;52.340;5.984;2022-12-24T07:38:34;40.40;;;8.60;;
47860;SDS011;33620;52.340;5.984;2022-12-24T07:40:59;47.45;;;10.45;;
47860;SDS011;33620;52.340;5.984;2022-12-24T07:43:26;44.75;;;9.52;;
47860;SDS011;33620;52.340;5.984;2022-12-24T07:45:55;44.65;;;9.63;;
47860;SDS011;33620;52.340;5.984;2022-12-24T07:48:21;41.92;;;10.00;;
47860;SDS011;33620;52.340;5.984;2022-12-24T07:50:48;51.33;;;10.77;;
47860;SDS011;33620;52.340;5.984;2022-12-24T07:53:14;51.03;;;11.38;;
47860;SDS011;33620;52.340;5.984;2022-12-24T07:55:39;47.50;;;9.63;;
47860;SDS011;33620;52.340;5.984;2022-12-24T07:58:04;47.10;;;10.07;;
47860;SDS011;33620;52.340;5.984;2022-12-24T08:00:30;44.33;;;9.70;;
47860;SDS011;33620;52.340;5.984;2022-12-24T08:02:55;52.25;;;9.02;;
47860;SDS011;33620;52.340;5.984;2022-12-24T08:05:22;50.28;;;8.23;;
47860;SDS011;33620;52.340;5.984;2022-12-24T08:07:47;50.05;;;9.27;;
47860;SDS011;33620;52.340;5.984;2022-12-24T08:10:13;40.55;;;8.68;;
47860;SDS011;33620;52.340;5.984;2022-12-24T08:12:38;40.15;;;8.20;;
47860;SDS011;33620;52.340;5.984;2022-12-24T08:15:07;42.10;;;8.73;;
47860;SDS011;33620;52.340;5.984;2022-12-24T08:17:32;45.10;;;8.57;;
47860;SDS011;33620;52.340;5.984;2022-12-24T08:19:58;50.55;;;8.75;;
47860;SDS011;33620;52.340;5.984;2022-12-24T08:22:24;40.55;;;8.82;;
47860;SDS011;33620;52.340;5.984;2022-12-24T08:24:49;49.20;;;11.00;;
47860;SDS011;33620;52.340;5.984;2022-12-24T08:27:15;43.45;;;8.85;;
47860;SDS011;33620;52.340;5.984;2022-12-24T08:29:40;52.75;;;10.80;;
47860;SDS011;33620;52.340;5.984;2022-12-24T08:32:06;44.33;;;8.63;;
47860;SDS011;33620;52.340;5.984;2022-12-24T08:34:34;50.38;;;9.77;;
47860;SDS011;33620;52.340;5.984;2022-12-24T08:36:59;57.40;;;9.38;;
47860;SDS011;33620;52.340;5.984;2022-12-24T08:39:28;42.58;;;9.60;;
47860;SDS011;33620;52.340;5.984;2022-12-24T08:41:54;45.45;;;9.35;;
47860;SDS011;33620;52.340;5.984;2022-12-24T08:44:20;51.50;;;9.73;;
47860;SDS011;33620;52.340;5.984;2022-12-24T08:46:45;47.92;;;9.70;;
47860;SDS011;33620;52.340;5.984;2022-12-24T08:49:11;45.95;;;9.82;;
47860;SDS011;33620;52.340;5.984;2022-12-24T08:51:36;39.60;;;9.50;;
47860;SDS011;33620;52.340;5.984;2022-12-24T08:54:01;49.38;;;10.60;;
47860;SDS011;33620;52.340;5.984;2022-12-24T08:56:27;47.63;;;10.00;;
47860;SDS011;33620;52.340;5.984;2022-12-24T08:58:52;49.28;;;10.15;;
47860;SDS011;33620;52.340;5.984;2022-12-24T09:01:18;54.72;;;10.88;;
47860;SDS011;33620;52.340;5.984;2022-12-24T09:03:44;47.28;;;10.18;;
47860;SDS011;33620;52.340;5.984;2022-12-24T09:06:10;52.50;;;9.63;;
47860;SDS011;33620;52.340;5.984;2022-12-24T09:08:35;58.72;;;10.98;;
47860;SDS011;33620;52.340;5.984;2022-12-24T09:11:05;48.60;;;9.70;;
47860;SDS011;33620;52.340;5.984;2022-12-24T09:13:32;43.90;;;9.07;;
47860;SDS011;33620;52.340;5.984;2022-12-24T09:15:58;49.20;;;10.02;;
47860;SDS011;33620;52.340;5.984;2022-12-24T09:18:24;46.97;;;9.32;;
47860;SDS011;33620;52.340;5.984;2022-12-24T09:20:49;43.70;;;8.77;;
47860;SDS011;33620;52.340;5.984;2022-12-24T09:23:15;44.08;;;8.73;;
47860;SDS011;33620;52.340;5.984;2022-12-24T09:25:41;42.85;;;8.80;;
47860;SDS011;33620;52.340;5.984;2022-12-24T09:28:07;51.13;;;10.13;;
47860;SDS011;33620;52.340;5.984;2022-12-24T09:30:32;44.78;;;9.38;;
47860;SDS011;33620;52.340;5.984;2022-12-24T09:32:57;50.17;;;9.88;;
47860;SDS011;33620;52.340;5.984;2022-12-24T09:35:23;44.85;;;9.95;;
47860;SDS011;33620;52.340;5.984;2022-12-24T09:37:48;44.03;;;9.48;;
47860;SDS011;33620;52.340;5.984;2022-12-24T09:40:27;49.35;;;9.02;;
47860;SDS011;33620;52.340;5.984;2022-12-24T09:43:00;54.00;;;9.45;;
47860;SDS011;33620;52.340;5.984;2022-12-24T09:45:29;40.95;;;9.05;;
47860;SDS011;33620;52.340;5.984;2022-12-24T09:48:08;46.85;;;8.80;;
47860;SDS011;33620;52.340;5.984;2022-12-24T09:56:19;39.67;;;8.73;;
47860;SDS011;33620;52.340;5.984;2022-12-24T09:58:48;41.10;;;8.52;;
47860;SDS011;33620;52.340;5.984;2022-12-24T10:01:20;47.47;;;8.60;;
47860;SDS011;33620;52.340;5.984;2022-12-24T10:03:45;35.17;;;8.13;;
47860;SDS011;33620;52.340;5.984;2022-12-24T10:06:15;40.97;;;9.00;;
47860;SDS011;33620;52.340;5.984;2022-12-24T10:19:28;52.35;;;9.68;;
47860;SDS011;33620;52.340;5.984;2022-12-24T10:24:56;37.13;;;8.35;;
47860;SDS011;33620;52.340;5.984;2022-12-24T10:27:38;42.03;;;7.18;;
47860;SDS011;33620;52.340;5.984;2022-12-24T10:33:28;35.75;;;7.88;;
47860;SDS011;33620;52.340;5.984;2022-12-24T10:36:17;37.13;;;8.45;;
47860;SDS011;33620;52.340;5.984;2022-12-24T10:38:48;40.95;;;8.13;;
47860;SDS011;33620;52.340;5.984;2022-12-24T10:41:18;39.85;;;8.18;;
47860;SDS011;33620;52.340;5.984;2022-12-24T10:43:45;40.30;;;7.45;;
47860;SDS011;33620;52.340;5.984;2022-12-24T10:46:27;36.88;;;7.43;;
47860;SDS011;33620;52.340;5.984;2022-12-24T10:49:15;41.25;;;7.93;;
47860;SDS011;33620;52.340;5.984;2022-12-24T10:55:08;45.88;;;8.95;;
47860;SDS011;33620;52.340;5.984;2022-12-24T10:57:39;35.13;;;8.35;;
47860;SDS011;33620;52.340;5.984;2022-12-24T11:00:19;36.00;;;6.90;;
47860;SDS011;33620;52.340;5.984;2022-12-24T11:02:47;39.17;;;8.73;;
47860;SDS011;33620;52.340;5.984;2022-12-24T11:05:27;40.03;;;8.82;;
47860;SDS011;33620;52.340;5.984;2022-12-24T11:10:53;38.00;;;8.93;;
47860;SDS011;33620;52.340;5.984;2022-12-24T11:13:24;38.78;;;8.20;;
47860;SDS011;33620;52.340;5.984;2022-12-24T11:18:54;30.17;;;7.45;;
47860;SDS011;33620;52.340;5.984;2022-12-24T11:21:28;40.47;;;8.65;;
47860;SDS011;33620;52.340;5.984;2022-12-24T11:26:37;34.65;;;7.50;;
47860;SDS011;33620;52.340;5.984;2022-12-24T11:29:16;33.08;;;8.43;;
47860;SDS011;33620;52.340;5.984;2022-12-24T11:31:47;43.25;;;8.80;;
47860;SDS011;33620;52.340;5.984;2022-12-24T11:34:29;36.03;;;8.20;;
47860;SDS011;33620;52.340;5.984;2022-12-24T11:37:07;39.10;;;7.90;;
47860;SDS011;33620;52.340;5.984;2022-12-24T11:39:39;38.10;;;7.90;;
47860;SDS011;33620;52.340;5.984;2022-12-24T11:42:06;46.47;;;9.88;;
47860;SDS011;33620;52.340;5.984;2022-12-24T11:44:47;40.17;;;8.15;;
47860;SDS011;33620;52.340;5.984;2022-12-24T11:47:14;32.75;;;8.45;;
47860;SDS011;33620;52.340;5.984;2022-12-24T11:49:39;47.20;;;8.55;;
47860;SDS011;33620;52.340;5.984;2022-12-24T11:54:42;39.88;;;7.55;;
47860;SDS011;33620;52.340;5.984;2022-12-24T11:57:15;37.63;;;8.98;;
47860;SDS011;33620;52.340;5.984;2022-12-24T11:59:47;40.90;;;7.60;;
47860;SDS011;33620;52.340;5.984;2022-12-24T12:05:02;33.50;;;8.18;;
47860;SDS011;33620;52.340;5.984;2022-12-24T12:07:34;38.72;;;7.68;;
47860;SDS011;33620;52.340;5.984;2022-12-24T12:12:35;31.10;;;7.90;;
47860;SDS011;33620;52.340;5.984;2022-12-24T12:22:55;31.13;;;6.97;;
47860;SDS011;33620;52.340;5.984;2022-12-24T12:30:54;33.17;;;6.88;;
47860;SDS011;33620;52.340;5.984;2022-12-24T12:33:40;28.80;;;6.82;;
47860;SDS011;33620;52.340;5.984;2022-12-24T12:36:24;33.47;;;6.68;;
47860;SDS011;33620;52.340;5.984;2022-12-24T12:38:55;31.15;;;6.07;;
47860;SDS011;33620;52.340;5.984;2022-12-24T12:41:23;34.58;;;6.78;;
47860;SDS011;33620;52.340;5.984;2022-12-24T12:44:26;26.50;;;5.72;;
47860;SDS011;33620;52.340;5.984;2022-12-24T12:55:50;31.80;;;7.30;;
47860;SDS011;33620;52.340;5.984;2022-12-24T12:58:00;30.70;;;7.53;;
47860;SDS011;33620;52.340;5.984;2022-12-24T13:00:30;35.53;;;7.38;;
47860;SDS011;33620;52.340;5.984;2022-12-24T13:03:43;36.45;;;5.93;;
47860;SDS011;33620;52.340;5.984;2022-12-24T13:09:17;24.10;;;5.22;;
47860;SDS011;33620;52.340;5.984;2022-12-24T13:20:41;26.63;;;5.07;;
47860;SDS011;33620;52.340;5.984;2022-12-24T13:23:21;27.30;;;4.85;;
47860;SDS011;33620;52.340;5.984;2022-12-24T13:25:49;29.05;;;5.40;;
47860;SDS011;33620;52.340;5.984;2022-12-24T13:36:03;23.73;;;4.80;;
47860;SDS011;33620;52.340;5.984;2022-12-24T13:38:56;29.80;;;5.95;;
47860;SDS011;33620;52.340;5.984;2022-12-24T13:44:00;22.75;;;4.32;;
47860;SDS011;33620;52.340;5.984;2022-12-24T13:52:06;25.85;;;5.03;;
47860;SDS011;33620;52.340;5.984;2022-12-24T13:54:44;28.33;;;5.35;;
47860;SDS011;33620;52.340;5.984;2022-12-24T13:57:30;25.33;;;5.18;;
47860;SDS011;33620;52.340;5.984;2022-12-24T14:08:04;28.08;;;5.00;;
47860;SDS011;33620;52.340;5.984;2022-12-24T14:10:42;25.65;;;6.07;;
47860;SDS011;33620;52.340;5.984;2022-12-24T14:13:49;26.15;;;5.25;;
47860;SDS011;33620;52.340;5.984;2022-12-24T14:16:29;29.02;;;5.25;;
47860;SDS011;33620;52.340;5.984;2022-12-24T14:24:36;25.30;;;5.25;;
47860;SDS011;33620;52.340;5.984;2022-12-24T14:29:47;25.92;;;5.68;;
47860;SDS011;33620;52.340;5.984;2022-12-24T14:32:16;28.10;;;5.05;;
47860;SDS011;33620;52.340;5.984;2022-12-24T14:34:42;27.73;;;5.57;;
47860;SDS011;33620;52.340;5.984;2022-12-24T14:37:09;24.00;;;4.68;;
47860;SDS011;33620;52.340;5.984;2022-12-24T14:39:38;24.55;;;4.63;;
47860;SDS011;33620;52.340;5.984;2022-12-24T14:56:13;24.58;;;5.07;;
47860;SDS011;33620;52.340;5.984;2022-12-24T15:01:20;21.58;;;5.10;;
47860;SDS011;33620;52.340;5.984;2022-12-24T15:06:38;30.58;;;5.35;;
47860;SDS011;33620;52.340;5.984;2022-12-24T15:09:16;29.63;;;5.78;;
47860;SDS011;33620;52.340;5.984;2022-12-24T15:11:45;26.70;;;5.75;;
47860;SDS011;33620;52.340;5.984;2022-12-24T15:14:12;24.67;;;5.57;;
47860;SDS011;33620;52.340;5.984;2022-12-24T15:16:38;34.72;;;5.85;;
47860;SDS011;33620;52.340;5.984;2022-12-24T15:19:06;30.30;;;5.35;;
47860;SDS011;33620;52.340;5.984;2022-12-24T15:21:47;22.00;;;5.40;;
47860;SDS011;33620;52.340;5.984;2022-12-24T15:24:26;29.50;;;5.70;;
47860;SDS011;33620;52.340;5.984;2022-12-24T15:26:59;25.23;;;5.47;;
47860;SDS011;33620;52.340;5.984;2022-12-24T15:29:28;28.13;;;5.55;;
47860;SDS011;33620;52.340;5.984;2022-12-24T15:32:00;33.08;;;6.47;;
47860;SDS011;33620;52.340;5.984;2022-12-24T15:34:36;26.23;;;5.82;;
47860;SDS011;33620;52.340;5.984;2022-12-24T15:37:05;25.27;;;6.88;;
47860;SDS011;33620;52.340;5.984;2022-12-24T15:39:39;28.20;;;6.55;;
47860;SDS011;33620;52.340;5.984;2022-12-24T15:42:06;22.75;;;5.75;;
47860;SDS011;33620;52.340;5.984;2022-12-24T15:44:43;29.38;;;6.13;;
47860;SDS011;33620;52.340;5.984;2022-12-24T15:47:31;28.17;;;5.72;;
47860;SDS011;33620;52.340;5.984;2022-12-24T15:50:03;26.98;;;5.55;;
47860;SDS011;33620;52.340;5.984;2022-12-24T15:52:38;27.05;;;6.43;;
47860;SDS011;33620;52.340;5.984;2022-12-24T15:55:22;27.58;;;6.78;;
47860;SDS011;33620;52.340;5.984;2022-12-24T15:57:59;28.85;;;8.35;;
47860;SDS011;33620;52.340;5.984;2022-12-24T16:00:26;27.58;;;8.02;;
47860;SDS011;33620;52.340;5.984;2022-12-24T16:03:08;29.20;;;8.65;;
47860;SDS011;33620;52.340;5.984;2022-12-24T16:05:44;34.45;;;10.02;;
47860;SDS011;33620;52.340;5.984;2022-12-24T16:10:38;27.65;;;9.32;;
47860;SDS011;33620;52.340;5.984;2022-12-24T16:15:50;26.05;;;8.20;;
47860;SDS011;33620;52.340;5.984;2022-12-24T16:18:22;28.73;;;9.93;;
47860;SDS011;33620;52.340;5.984;2022-12-24T16:20:50;32.67;;;11.48;;
47860;SDS011;33620;52.340;5.984;2022-12-24T16:23:20;35.30;;;10.55;;
47860;SDS011;33620;52.340;5.984;2022-12-24T16:25:47;33.42;;;11.23;;
47860;SDS011;33620;52.340;5.984;2022-12-24T16:28:13;33.60;;;10.95;;
47860;SDS011;33620;52.340;5.984;2022-12-24T16:30:39;29.40;;;9.77;;
47860;SDS011;33620;52.340;5.984;2022-12-24T16:33:10;26.00;;;8.40;;
47860;SDS011;33620;52.340;5.984;2022-12-24T16:35:38;28.65;;;8.10;;
47860;SDS011;33620;52.340;5.984;2022-12-24T16:38:03;33.30;;;8.43;;
47860;SDS011;33620;52.340;5.984;2022-12-24T16:40:28;31.02;;;8.75;;
47860;SDS011;33620;52.340;5.984;2022-12-24T16:42:57;24.63;;;6.72;;
47860;SDS011;33620;52.340;5.984;2022-12-24T16:45:41;25.98;;;7.20;;
47860;SDS011;33620;52.340;5.984;2022-12-24T16:48:07;29.75;;;7.82;;
47860;SDS011;33620;52.340;5.984;2022-12-24T16:50:36;25.27;;;7.82;;
47860;SDS011;33620;52.340;5.984;2022-12-24T16:53:01;25.15;;;7.53;;
47860;SDS011;33620;52.340;5.984;2022-12-24T16:55:26;28.98;;;8.15;;
47860;SDS011;33620;52.340;5.984;2022-12-24T16:57:52;23.08;;;6.97;;
47860;SDS011;33620;52.340;5.984;2022-12-24T17:00:19;22.52;;;7.13;;
47860;SDS011;33620;52.340;5.984;2022-12-24T17:02:46;29.80;;;8.95;;
47860;SDS011;33620;52.340;5.984;2022-12-24T17:05:12;29.85;;;8.75;;
47860;SDS011;33620;52.340;5.984;2022-12-24T17:07:38;29.35;;;8.50;;
47860;SDS011;33620;52.340;5.984;2022-12-24T17:10:04;26.65;;;7.88;;
47860;SDS011;33620;52.340;5.984;2022-12-24T17:12:30;24.08;;;7.88;;
47860;SDS011;33620;52.340;5.984;2022-12-24T17:14:55;27.38;;;8.32;;
47860;SDS011;33620;52.340;5.984;2022-12-24T17:17:25;34.15;;;8.52;;
47860;SDS011;33620;52.340;5.984;2022-12-24T17:19:52;30.50;;;10.02;;
47860;SDS011;33620;52.340;5.984;2022-12-24T17:22:18;27.98;;;9.27;;
47860;SDS011;33620;52.340;5.984;2022-12-24T17:24:44;30.73;;;8.05;;
47860;SDS011;33620;52.340;5.984;2022-12-24T17:27:09;24.58;;;7.28;;